Time;durP1;ratioP1;P1;durP2;ratioP2;P2;SDS_P1;SDS_P2;PMS_P1;PMS_P2;Temp;Humidity;BMP_temperature;BMP_pressure;BME280_temperature;BME280_humidity;BME280_pressure;Samples;Min_cycle;Max_cycle;Signal;HPM_P1;HPM_P2
2023/09/17 00:01:58;;;;;;;11.43;10.33;;;20.40;99.90;;;;;;5033682;28;20859;-85
2023/09/17 00:04:27;;;;;;;10.77;9.83;;;20.40;99.90;;;;;;5035232;28;20479;-87
2023/09/17 00:06:54;;;;;;;11.03;10.13;;;20.40;99.90;;;;;;5023578;28;20866;-87
2023/09/17 00:09:21;;;;;;;10.73;9.83;;;20.40;99.90;;;;;;5032366;28;20591;-85
2023/09/17 00:11:51;;;;;;;11.63;10.63;;;20.40;99.90;;;;;;5033386;28;20831;-86
2023/09/17 00:14:18;;;;;;;11.23;10.20;;;20.40;99.90;;;;;;5022854;28;20810;-83
2023/09/17 00:16:48;;;;;;;10.80;9.90;;;20.40;99.90;;;;;;5032617;28;20464;-85
2023/09/17 00:19:16;;;;;;;10.87;9.97;;;20.40;99.90;;;;;;5036348;28;20525;-84
2023/09/17 00:21:44;;;;;;;11.13;10.13;;;20.40;99.90;;;;;;5039505;28;20468;-87
2023/09/17 00:24:13;;;;;;;10.60;9.70;;;20.30;99.90;;;;;;5039795;28;20488;-86
2023/09/17 00:26:40;;;;;;;10.30;9.50;;;20.30;99.90;;;;;;5039351;28;20459;-86
2023/09/17 00:29:07;;;;;;;10.33;9.43;;;20.30;99.90;;;;;;5039641;28;20471;-84
2023/09/17 00:31:37;;;;;;;9.77;8.87;;;20.30;99.90;;;;;;5027443;28;20929;-84
2023/09/17 00:34:10;;;;;;;9.47;8.57;;;20.30;99.90;;;;;;5009304;28;20521;-86
2023/09/17 00:36:46;;;;;;;9.50;8.70;;;20.30;99.90;;;;;;5029042;28;20490;-84
2023/09/17 00:39:17;;;;;;;9.17;8.37;;;20.30;99.90;;;;;;5039352;28;20525;-86
2023/09/17 00:41:44;;;;;;;9.87;8.97;;;20.30;99.90;;;;;;5039251;28;20471;-84
2023/09/17 00:44:11;;;;;;;8.93;8.13;;;20.30;99.90;;;;;;5037710;28;20466;-86
2023/09/17 00:46:39;;;;;;;11.90;10.80;;;20.30;99.90;;;;;;5029221;28;20526;-86
2023/09/17 00:49:12;;;;;;;10.93;10.03;;;20.20;99.90;;;;;;5038311;28;20476;-86
2023/09/17 00:51:40;;;;;;;9.50;8.60;;;20.20;99.90;;;;;;5038566;28;20498;-86
2023/09/17 00:54:09;;;;;;;9.30;8.50;;;20.30;99.90;;;;;;5038924;28;20468;-86
2023/09/17 00:56:38;;;;;;;10.60;9.70;;;20.20;99.90;;;;;;5028603;28;20530;-86
2023/09/17 00:59:10;;;;;;;9.10;8.30;;;20.20;99.90;;;;;;5038156;28;20543;-84
2023/09/17 01:01:43;;;;;;;9.73;8.83;;;20.20;99.90;;;;;;5039079;28;20522;-86
2023/09/17 01:04:13;;;;;;;9.10;8.30;;;20.20;99.90;;;;;;5038556;28;20499;-86
2023/09/17 01:06:42;;;;;;;9.40;8.60;;;20.20;99.90;;;;;;5038896;28;20456;-86
2023/09/17 01:09:09;;;;;;;9.50;8.70;;;20.20;99.90;;;;;;5038600;28;20953;-83
2023/09/17 01:11:41;;;;;;;9.73;8.83;;;20.20;99.90;;;;;;5039270;28;20466;-83
2023/09/17 01:14:15;;;;;;;10.70;9.80;;;20.20;99.90;;;;;;5038168;28;20464;-84
2023/09/17 01:16:45;;;;;;;10.00;9.10;;;20.10;99.90;;;;;;5038868;28;20551;-84
2023/09/17 01:19:17;;;;;;;10.73;9.73;;;20.10;99.90;;;;;;5038397;28;20467;-83
2023/09/17 01:22:01;;;;;;;9.47;8.73;;;20.10;99.90;;;;;;5039483;28;20479;-84
2023/09/17 01:24:40;;;;;;;9.43;8.67;;;20.10;99.90;;;;;;5038891;28;20936;-86
2023/09/17 01:27:10;;;;;;;10.10;9.20;;;20.10;99.90;;;;;;5038149;28;20466;-86
2023/09/17 01:29:39;;;;;;;10.00;9.20;;;20.10;99.90;;;;;;5037588;28;20562;-84
2023/09/17 01:32:09;;;;;;;10.93;9.93;;;20.10;99.90;;;;;;5034418;28;20460;-85
2023/09/17 01:34:42;;;;;;;11.40;10.30;;;20.10;99.90;;;;;;5035928;28;20781;-86
2023/09/17 01:37:17;;;;;;;11.10;9.60;;;20.10;99.90;;;;;;5035115;28;20825;-86
2023/09/17 01:40:06;;;;;;;12.43;11.33;;;20.00;99.90;;;;;;5035693;28;20525;-84
2023/09/17 01:42:37;;;;;;;11.50;10.47;;;20.00;99.90;;;;;;5034963;28;20464;-85
2023/09/17 01:45:09;;;;;;;10.43;9.53;;;20.00;99.90;;;;;;5035310;28;20479;-86
2023/09/17 01:47:38;;;;;;;11.93;10.80;;;20.00;99.90;;;;;;5035146;28;20448;-83
2023/09/17 01:50:12;;;;;;;11.13;10.13;;;20.00;99.90;;;;;;5026235;28;20914;-83
2023/09/17 01:52:43;;;;;;;11.17;10.17;;;20.00;99.90;;;;;;5035658;28;20480;-86
2023/09/17 01:55:10;;;;;;;11.30;10.20;;;19.90;99.90;;;;;;5154527;22;20486;-86
2023/09/17 01:57:39;;;;;;;10.67;9.67;;;19.90;99.90;;;;;;5074896;28;20498;-84
2023/09/17 02:00:14;;;;;;;10.90;9.90;;;19.90;99.90;;;;;;5075737;28;20493;-86
2023/09/17 02:02:43;;;;;;;10.40;9.60;;;19.90;99.90;;;;;;5074905;28;20527;-86
2023/09/17 02:05:10;;;;;;;10.13;9.33;;;19.90;99.90;;;;;;5075403;28;20470;-86
2023/09/17 02:07:37;;;;;;;9.80;9.00;;;19.90;99.90;;;;;;5076012;28;20505;-84
2023/09/17 02:10:07;;;;;;;9.47;8.70;;;19.80;99.90;;;;;;5075795;28;20783;-84
2023/09/17 02:12:34;;;;;;;9.40;8.60;;;19.80;99.90;;;;;;5075101;28;20470;-84
2023/09/17 02:15:03;;;;;;;9.80;8.90;;;19.80;99.90;;;;;;5074896;28;20506;-83
2023/09/17 02:17:30;;;;;;;10.37;9.47;;;19.80;99.90;;;;;;5074693;28;20485;-83
2023/09/17 02:19:57;;;;;;;10.20;9.20;;;19.80;99.90;;;;;;5075002;28;20496;-86
2023/09/17 02:22:24;;;;;;;10.47;9.57;;;19.80;99.90;;;;;;5055723;28;20466;-86
2023/09/17 02:24:51;;;;;;;10.23;9.20;;;19.80;99.90;;;;;;5074631;28;20470;-84
2023/09/17 02:27:40;;;;;;;10.30;9.40;;;19.80;99.90;;;;;;5070418;28;20459;-84
2023/09/17 02:30:11;;;;;;;11.17;10.17;;;19.80;99.90;;;;;;5075221;28;20832;-86
2023/09/17 02:32:38;;;;;;;10.10;9.30;;;19.70;99.90;;;;;;5074986;28;20541;-84
2023/09/17 02:35:07;;;;;;;10.70;9.70;;;19.80;99.90;;;;;;5074579;28;20481;-84
2023/09/17 02:37:34;;;;;;;10.33;9.40;;;19.80;99.90;;;;;;5073921;28;20467;-84
2023/09/17 02:40:02;;;;;;;10.67;9.67;;;19.80;99.90;;;;;;5074725;28;20462;-83
2023/09/17 02:42:33;;;;;;;10.23;9.37;;;19.70;99.90;;;;;;5077410;28;20474;-86
2023/09/17 02:45:15;;;;;;;9.97;9.07;;;19.70;99.90;;;;;;5075867;28;20471;-84
2023/09/17 02:48:34;;;;;;;9.63;8.83;;;19.70;99.90;;;;;;5044203;28;20470;-84
2023/09/17 02:51:04;;;;;;;10.63;9.83;;;19.70;99.90;;;;;;5074247;28;20955;-86
2023/09/17 02:53:31;;;;;;;10.20;9.27;;;19.70;99.90;;;;;;5074850;28;20466;-86
2023/09/17 02:55:59;;;;;;;12.20;10.40;;;19.70;99.90;;;;;;5073975;28;20960;-84
2023/09/17 02:58:26;;;;;;;11.37;10.43;;;19.70;99.90;;;;;;5072728;28;20454;-83
2023/09/17 03:00:56;;;;;;;12.77;11.67;;;19.70;99.90;;;;;;5057018;28;20475;-86
2023/09/17 03:03:24;;;;;;;11.73;10.57;;;19.70;99.90;;;;;;5063744;28;20467;-85
2023/09/17 03:05:53;;;;;;;12.80;11.63;;;19.70;99.90;;;;;;5074097;28;20959;-86
2023/09/17 03:08:23;;;;;;;11.17;10.10;;;19.60;99.90;;;;;;5074149;28;20489;-86
2023/09/17 03:10:58;;;;;;;12.60;10.53;;;19.60;99.90;;;;;;5074037;28;20462;-84
2023/09/17 03:13:28;;;;;;;11.93;10.83;;;19.60;99.90;;;;;;5073196;28;20462;-86
2023/09/17 03:16:04;;;;;;;12.40;11.30;;;19.60;99.90;;;;;;5054062;28;20478;-86
2023/09/17 03:18:33;;;;;;;11.60;10.60;;;19.60;99.90;;;;;;5073792;28;20494;-84
2023/09/17 03:21:09;;;;;;;11.33;10.37;;;19.60;99.90;;;;;;5065394;28;20539;-85
2023/09/17 03:23:36;;;;;;;11.60;10.50;;;19.60;99.90;;;;;;5073429;28;20504;-84
2023/09/17 03:26:04;;;;;;;11.23;10.13;;;19.50;99.90;;;;;;5072223;28;20540;-86
2023/09/17 03:28:54;;;;;;;10.20;9.37;;;19.60;99.90;;;;;;5073292;28;20972;-84
2023/09/17 03:31:33;;;;;;;13.10;11.80;;;19.50;99.90;;;;;;5062965;28;20541;-86
2023/09/17 03:34:14;;;;;;;13.33;12.07;;;19.50;99.90;;;;;;5051624;28;21022;-86
2023/09/17 03:36:41;;;;;;;12.73;11.63;;;19.50;99.90;;;;;;5050370;28;20481;-86
2023/09/17 03:39:09;;;;;;;12.10;11.00;;;19.50;99.90;;;;;;5056785;28;20474;-84
2023/09/17 03:42:12;;;;;;;;;;;;;;;;;;;;;
2023/09/17 03:44:40;;;;;;;12.27;11.10;;;19.50;99.90;;;;;;5049192;28;20471;-86
2023/09/17 03:47:08;;;;;;;12.90;11.70;;;19.50;99.90;;;;;;5061838;28;20466;-86
2023/09/17 03:49:37;;;;;;;12.37;11.37;;;19.40;99.90;;;;;;5049058;28;20462;-86
2023/09/17 03:52:12;;;;;;;12.60;11.50;;;19.40;99.90;;;;;;5069444;28;20466;-86
2023/09/17 03:54:41;;;;;;;13.43;12.13;;;19.40;99.90;;;;;;5072414;28;20523;-84
2023/09/17 03:57:08;;;;;;;13.73;12.50;;;19.40;99.90;;;;;;5072348;28;20462;-84
2023/09/17 03:59:38;;;;;;;11.97;10.77;;;19.40;99.90;;;;;;5072996;28;20897;-86
2023/09/17 04:02:08;;;;;;;13.00;11.70;;;19.40;99.90;;;;;;5072866;28;20478;-86
2023/09/17 04:04:37;;;;;;;12.67;11.47;;;19.40;99.90;;;;;;5073033;28;20466;-86
2023/09/17 04:07:04;;;;;;;14.60;13.37;;;19.30;99.90;;;;;;5072205;28;20467;-84
2023/09/17 04:09:31;;;;;;;12.77;11.63;;;19.30;99.90;;;;;;5073349;28;20544;-84
2023/09/17 04:12:03;;;;;;;11.87;10.30;;;19.30;99.90;;;;;;5073196;28;20948;-86
2023/09/17 04:14:31;;;;;;;12.03;10.93;;;19.30;99.90;;;;;;5071458;28;20884;-84
2023/09/17 04:17:00;;;;;;;11.30;10.30;;;19.30;99.90;;;;;;5072521;28;20952;-86
2023/09/17 04:19:28;;;;;;;12.50;11.50;;;19.30;99.90;;;;;;5072377;28;20467;-86
2023/09/17 04:21:56;;;;;;;12.23;11.20;;;19.20;99.90;;;;;;5072827;28;21001;-84
2023/09/17 04:24:26;;;;;;;13.03;11.90;;;19.20;99.90;;;;;;5069069;28;20493;-86
2023/09/17 04:26:54;;;;;;;13.23;11.93;;;19.20;99.90;;;;;;5073537;28;20466;-86
2023/09/17 04:29:43;;;;;;;12.03;11.03;;;19.20;99.90;;;;;;5073149;28;20544;-84
2023/09/17 04:32:12;;;;;;;11.93;10.83;;;19.20;99.90;;;;;;5024643;28;20486;-84
2023/09/17 04:34:39;;;;;;;12.50;11.40;;;19.10;99.90;;;;;;5068605;28;20816;-86
2023/09/17 04:37:07;;;;;;;12.73;11.70;;;19.10;99.90;;;;;;5046866;28;20468;-86
2023/09/17 04:39:35;;;;;;;13.40;12.20;;;19.10;99.90;;;;;;5070659;28;20481;-86
2023/09/17 04:42:02;;;;;;;11.77;10.83;;;19.10;99.90;;;;;;5072644;28;20481;-86
2023/09/17 04:44:35;;;;;;;12.50;11.40;;;19.00;99.90;;;;;;5051491;28;20781;-86
2023/09/17 04:47:03;;;;;;;13.53;12.30;;;19.00;99.90;;;;;;5066111;28;20516;-86
2023/09/17 04:49:31;;;;;;;12.50;11.40;;;19.00;99.90;;;;;;5071915;28;20500;-86
2023/09/17 04:52:00;;;;;;;10.40;9.60;;;19.00;99.90;;;;;;5072602;28;20527;-86
2023/09/17 04:54:29;;;;;;;12.33;11.23;;;19.00;99.90;;;;;;5071535;28;20561;-84
2023/09/17 04:56:56;;;;;;;12.07;11.07;;;19.00;99.90;;;;;;5071976;28;20466;-84
2023/09/17 04:59:23;;;;;;;11.80;10.90;;;19.00;99.90;;;;;;5072598;28;20963;-84
2023/09/17 05:01:51;;;;;;;13.03;11.73;;;19.00;99.90;;;;;;5072194;28;20928;-86
2023/09/17 05:04:21;;;;;;;12.87;11.67;;;19.00;99.90;;;;;;5072254;28;20470;-84
2023/09/17 05:06:48;;;;;;;11.60;10.60;;;19.00;99.90;;;;;;5075631;28;20461;-85
2023/09/17 05:09:22;;;;;;;12.77;11.70;;;19.00;99.90;;;;;;5071919;28;20465;-83
2023/09/17 05:12:01;;;;;;;12.03;10.93;;;19.00;99.90;;;;;;5054434;28;20793;-85
2023/09/17 05:14:28;;;;;;;12.50;11.47;;;19.00;99.90;;;;;;5050664;28;21047;-85
2023/09/17 05:17:03;;;;;;;12.73;11.53;;;19.00;99.90;;;;;;5046068;28;20483;-83
2023/09/17 05:19:30;;;;;;;11.83;10.73;;;19.10;99.90;;;;;;5067773;28;20458;-83
2023/09/17 05:21:57;;;;;;;12.57;11.37;;;19.00;99.90;;;;;;5075484;28;20466;-84
2023/09/17 05:24:24;;;;;;;12.30;11.30;;;19.00;99.90;;;;;;5061178;28;20554;-85
2023/09/17 05:26:58;;;;;;;12.23;11.20;;;19.00;99.90;;;;;;5061865;28;20515;-86
2023/09/17 05:29:26;;;;;;;11.20;10.23;;;19.10;99.90;;;;;;5065519;28;20548;-86
2023/09/17 05:32:11;;;;;;;12.20;11.03;;;19.10;99.90;;;;;;5066228;28;20457;-85
2023/09/17 05:35:07;;;;;;;11.87;10.87;;;19.10;99.90;;;;;;5075153;28;20482;-86
2023/09/17 05:37:40;;;;;;;12.20;11.20;;;19.10;99.90;;;;;;5039646;28;20454;-85
2023/09/17 05:40:10;;;;;;;12.43;11.33;;;19.20;99.90;;;;;;5060197;28;20944;-85
2023/09/17 05:42:41;;;;;;;12.03;11.03;;;19.20;99.90;;;;;;5062313;28;20547;-84
2023/09/17 05:45:11;;;;;;;13.07;11.77;;;19.20;99.90;;;;;;5052906;28;20485;-85
2023/09/17 05:47:40;;;;;;;14.27;12.80;;;19.20;99.90;;;;;;5051059;28;20470;-83
2023/09/17 05:50:19;;;;;;;12.50;11.20;;;19.30;99.90;;;;;;5072864;28;20971;-83
2023/09/17 05:52:49;;;;;;;12.90;11.60;;;19.30;99.90;;;;;;5074862;28;20462;-86
2023/09/17 05:55:24;;;;;;;13.53;12.20;;;19.30;99.90;;;;;;5075517;28;20481;-84
2023/09/17 05:57:52;;;;;;;12.10;10.97;;;19.30;99.90;;;;;;5067035;28;20465;-84
2023/09/17 06:00:20;;;;;;;12.30;11.27;;;19.40;99.90;;;;;;5075045;28;20804;-83
2023/09/17 06:02:47;;;;;;;13.00;11.30;;;19.40;99.90;;;;;;5074774;28;20481;-83
2023/09/17 06:05:23;;;;;;;12.00;10.97;;;19.50;99.90;;;;;;5074309;28;20501;-83
2023/09/17 06:07:51;;;;;;;9.90;9.07;;;19.50;99.90;;;;;;5073999;28;20462;-86
2023/09/17 06:10:18;;;;;;;12.50;10.10;;;19.50;99.90;;;;;;5074600;28;20545;-85
2023/09/17 06:12:48;;;;;;;11.90;10.80;;;19.50;99.90;;;;;;5074040;28;20466;-85
2023/09/17 06:15:22;;;;;;;10.50;9.60;;;19.50;99.90;;;;;;5074064;28;20502;-83
2023/09/17 06:17:52;;;;;;;10.83;9.87;;;19.50;99.90;;;;;;5059678;28;20464;-85
2023/09/17 06:20:29;;;;;;;12.20;11.20;;;19.60;99.90;;;;;;5050544;28;20463;-87
2023/09/17 06:22:59;;;;;;;9.87;9.17;;;19.60;99.90;;;;;;5064246;28;20550;-86
2023/09/17 06:25:26;;;;;;;11.23;10.20;;;19.60;99.90;;;;;;5171092;22;20515;-85
2023/09/17 06:27:56;;;;;;;9.73;8.83;;;19.70;99.90;;;;;;5054824;28;20515;-85
2023/09/17 06:30:25;;;;;;;11.93;11.03;;;19.70;99.90;;;;;;5045343;28;20545;-83
2023/09/17 06:32:54;;;;;;;11.30;10.23;;;19.70;99.90;;;;;;5012029;28;20463;-83
2023/09/17 06:35:21;;;;;;;12.73;11.50;;;19.70;99.90;;;;;;5055430;28;20471;-84
2023/09/17 06:38:05;;;;;;;14.40;11.47;;;19.80;99.90;;;;;;5054340;28;20936;-84
2023/09/17 06:40:35;;;;;;;11.10;10.20;;;19.80;99.90;;;;;;5054994;28;20538;-86
2023/09/17 06:43:16;;;;;;;11.83;10.73;;;19.80;99.90;;;;;;5055841;28;20798;-83
2023/09/17 06:45:45;;;;;;;10.93;9.80;;;19.90;99.90;;;;;;5054699;28;20475;-84
2023/09/17 06:48:12;;;;;;;10.70;9.87;;;19.90;99.90;;;;;;5046108;28;20531;-85
2023/09/17 06:50:40;;;;;;;11.70;10.70;;;19.90;99.90;;;;;;5056393;28;20787;-85
2023/09/17 06:53:07;;;;;;;10.57;9.67;;;20.00;99.90;;;;;;5054940;28;20478;-82
2023/09/17 06:55:34;;;;;;;10.50;9.50;;;20.00;99.90;;;;;;5055051;28;20479;-85
2023/09/17 06:58:04;;;;;;;10.07;9.20;;;20.00;99.90;;;;;;5026529;28;20945;-83
2023/09/17 07:00:34;;;;;;;10.50;9.60;;;20.00;99.90;;;;;;5053932;28;20493;-86
2023/09/17 07:03:17;;;;;;;10.80;9.63;;;20.10;99.90;;;;;;5054442;28;20817;-84
2023/09/17 07:05:44;;;;;;;10.77;9.87;;;20.10;99.90;;;;;;5054621;28;20528;-84
2023/09/17 07:08:11;;;;;;;10.40;9.60;;;20.10;99.90;;;;;;5032487;28;20465;-83
2023/09/17 07:10:49;;;;;;;11.37;10.47;;;20.10;99.90;;;;;;5054834;28;20570;-84
2023/09/17 07:13:19;;;;;;;10.90;9.87;;;20.20;99.90;;;;;;5051583;28;20474;-84
2023/09/17 07:16:02;;;;;;;;;;;;;;;;;;;;;
2023/09/17 07:19:00;;;;;;;9.23;8.53;;;20.30;99.90;;;;;;5045381;28;20478;-86
2023/09/17 07:21:27;;;;;;;11.30;10.30;;;20.30;99.90;;;;;;5053118;28;20474;-86
2023/09/17 07:26:46;;;;;;;10.73;9.83;;;20.40;99.90;;;;;;5014455;28;20487;-87
2023/09/17 07:29:17;;;;;;;10.03;9.20;;;20.40;99.90;;;;;;5042763;28;20470;-86
2023/09/17 07:31:51;;;;;;;12.70;11.50;;;20.50;99.90;;;;;;5044972;28;20538;-83
2023/09/17 07:34:54;;;;;;;13.67;12.47;;;20.60;99.90;;;;;;5032763;28;20471;-84
2023/09/17 07:37:23;;;;;;;11.10;10.20;;;20.60;99.90;;;;;;5007643;28;20482;-86
2023/09/17 07:39:59;;;;;;;12.20;11.07;;;20.70;99.90;;;;;;5045148;28;20460;-86
2023/09/17 07:42:26;;;;;;;10.77;9.77;;;20.70;99.90;;;;;;5057173;28;20461;-84
2023/09/17 07:45:05;;;;;;;11.97;10.97;;;20.80;99.90;;;;;;5045460;28;21046;-84
2023/09/17 07:47:39;;;;;;;10.30;9.40;;;20.80;99.90;;;;;;5046353;28;20490;-86
2023/09/17 07:50:49;;;;;;;11.27;10.37;;;20.90;99.90;;;;;;5062943;28;20520;-85
2023/09/17 07:53:30;;;;;;;11.33;10.33;;;20.90;99.90;;;;;;4970138;28;20471;-86
2023/09/17 07:56:10;;;;;;;11.90;10.70;;;21.00;99.90;;;;;;4995359;28;20497;-86
2023/09/17 07:58:45;;;;;;;11.57;10.63;;;21.10;99.90;;;;;;5048365;28;20837;-84
2023/09/17 08:01:15;;;;;;;12.60;11.50;;;21.10;99.90;;;;;;5051955;28;20860;-84
2023/09/17 08:03:43;;;;;;;11.40;10.50;;;21.20;99.90;;;;;;5033076;28;20468;-83
2023/09/17 08:06:16;;;;;;;13.40;12.30;;;21.30;99.90;;;;;;5049199;28;20459;-85
2023/09/17 08:09:00;;;;;;;11.20;10.30;;;21.40;99.90;;;;;;5061577;28;20467;-83
2023/09/17 08:11:29;;;;;;;12.60;11.47;;;21.40;99.90;;;;;;5024987;28;20482;-84
2023/09/17 08:13:56;;;;;;;11.67;10.67;;;21.50;99.90;;;;;;5045425;28;20525;-84
2023/09/17 08:17:01;;;;;;;11.53;10.53;;;21.50;99.90;;;;;;5036538;28;20486;-84
2023/09/17 08:22:34;;;;;;;11.80;10.80;;;21.70;99.90;;;;;;5026278;28;20481;-83
2023/09/17 08:25:13;;;;;;;10.53;9.63;;;21.80;99.90;;;;;;5053478;28;20851;-84
2023/09/17 08:27:54;;;;;;;13.27;12.00;;;21.80;99.90;;;;;;5054221;28;20466;-85
2023/09/17 08:30:26;;;;;;;11.00;10.10;;;21.90;99.90;;;;;;5054635;28;20542;-81
2023/09/17 08:33:01;;;;;;;15.50;14.00;;;22.00;99.90;;;;;;5044959;28;20467;-86
2023/09/17 08:35:42;;;;;;;16.10;14.60;;;22.00;99.90;;;;;;5054470;28;20463;-86
2023/09/17 08:38:11;;;;;;;12.63;11.60;;;22.10;99.90;;;;;;5052844;28;20470;-86
2023/09/17 08:40:42;;;;;;;12.30;11.03;;;22.20;99.90;;;;;;5046588;28;20480;-83
2023/09/17 08:43:12;;;;;;;13.80;12.60;;;22.20;99.90;;;;;;5055841;28;20516;-83
2023/09/17 08:45:48;;;;;;;11.37;10.27;;;22.30;99.90;;;;;;5047987;28;20475;-83
2023/09/17 08:48:22;;;;;;;10.83;9.93;;;22.40;99.90;;;;;;5057195;28;20520;-86
2023/09/17 08:51:00;;;;;;;12.00;10.97;;;22.40;99.90;;;;;;5037930;28;20481;-84
2023/09/17 08:53:47;;;;;;;13.17;11.97;;;22.50;99.90;;;;;;5047778;28;20478;-85
2023/09/17 08:56:56;;;;;;;;;;;;;;;;;;;;;
2023/09/17 08:59:45;;;;;;;12.07;10.93;;;22.50;99.90;;;;;;5028856;28;20459;-86
2023/09/17 09:02:48;;;;;;;13.97;12.67;;;22.60;99.90;;;;;;5042032;28;20475;-84
2023/09/17 09:05:22;;;;;;;12.37;11.13;;;22.70;99.90;;;;;;5055056;28;20475;-85
2023/09/17 09:07:55;;;;;;;13.87;12.70;;;22.80;99.90;;;;;;5056256;28;20462;-84
2023/09/17 09:10:26;;;;;;;24.70;22.50;;;22.80;99.90;;;;;;5045139;28;20562;-86
2023/09/17 09:13:10;;;;;;;24.97;22.87;;;22.90;99.90;;;;;;5057234;28;20794;-85
2023/09/17 09:15:38;;;;;;;16.77;15.20;;;22.90;99.90;;;;;;5055723;28;20466;-84
2023/09/17 09:18:10;;;;;;;16.00;14.50;;;23.00;99.90;;;;;;5044937;28;20482;-86
2023/09/17 09:20:40;;;;;;;15.60;14.20;;;23.00;99.90;;;;;;5055345;28;20501;-86
2023/09/17 09:23:15;;;;;;;9.93;9.13;;;23.10;99.90;;;;;;5030628;28;20550;-86
2023/09/17 09:25:45;;;;;;;13.77;11.70;;;23.10;99.90;;;;;;5044208;28;20470;-84
2023/09/17 09:28:26;;;;;;;11.80;10.90;;;23.10;99.90;;;;;;5055250;28;20483;-84
2023/09/17 09:30:55;;;;;;;16.77;15.20;;;23.20;99.90;;;;;;5031857;28;20497;-84
2023/09/17 09:33:28;;;;;;;17.10;15.77;;;23.30;99.90;;;;;;5055742;28;20464;-86
2023/09/17 09:36:05;;;;;;;;;;;;;;;;;;;;;
2023/09/17 09:38:35;;;;;;;12.80;11.70;;;23.40;99.90;;;;;;5055104;28;20484;-84
2023/09/17 09:41:06;;;;;;;15.00;10.97;;;23.40;99.90;;;;;;5057810;28;20965;-86
2023/09/17 09:43:41;;;;;;;16.63;15.23;;;23.40;99.90;;;;;;5055798;28;20474;-85
2023/09/17 09:46:13;;;;;;;14.50;13.20;;;23.50;99.90;;;;;;5219185;22;20454;-84
2023/09/17 09:48:46;;;;;;;12.77;11.70;;;23.50;99.90;;;;;;5076813;28;20857;-84
2023/09/17 09:51:17;;;;;;;19.63;17.73;;;23.50;99.90;;;;;;5052052;28;20518;-86
2023/09/17 09:53:49;;;;;;;16.53;15.13;;;23.60;99.90;;;;;;5061345;28;20470;-85
2023/09/17 09:56:16;;;;;;;17.40;16.00;;;23.60;99.90;;;;;;5029483;28;20491;-84
2023/09/17 10:01:32;;;;;;;15.17;13.97;;;23.60;99.90;;;;;;5053568;28;20486;-86
2023/09/17 10:04:05;;;;;;;12.17;11.17;;;23.70;99.90;;;;;;5057552;28;20467;-84
2023/09/17 10:06:40;;;;;;;10.83;9.73;;;23.80;99.90;;;;;;5037233;28;20564;-85
2023/09/17 10:09:10;;;;;;;11.60;10.57;;;23.80;99.90;;;;;;5050257;28;20462;-85
2023/09/17 10:11:39;;;;;;;13.40;12.30;;;23.80;99.90;;;;;;5055775;28;20459;-85
2023/09/17 10:14:08;;;;;;;12.40;11.37;;;23.80;99.90;;;;;;5056303;28;21116;-85
2023/09/17 10:16:37;;;;;;;14.00;12.70;;;23.90;99.90;;;;;;5017256;28;20475;-84
2023/09/17 10:19:07;;;;;;;12.97;11.73;;;23.90;99.90;;;;;;5055211;28;20463;-84
2023/09/17 10:21:38;;;;;;;13.50;12.30;;;23.90;99.90;;;;;;5026978;28;20480;-84
2023/09/17 10:24:09;;;;;;;13.23;12.13;;;23.90;99.90;;;;;;5039682;28;20487;-84
2023/09/17 10:26:51;;;;;;;12.30;11.20;;;23.90;99.90;;;;;;5037276;28;20475;-84
2023/09/17 10:29:42;;;;;;;12.63;11.33;;;23.90;99.90;;;;;;5051444;28;20478;-84
2023/09/17 10:32:23;;;;;;;13.90;12.50;;;23.90;99.90;;;;;;5054253;28;20474;-84
2023/09/17 10:38:38;;;;;;;14.07;12.43;;;24.00;99.90;;;;;;4987952;28;20476;-83
2023/09/17 10:41:17;;;;;;;10.90;10.00;;;24.00;99.90;;;;;;5014564;28;20795;-83
2023/09/17 10:43:50;;;;;;;10.63;9.73;;;24.00;99.90;;;;;;5063678;28;20474;-86
2023/09/17 10:46:27;;;;;;;12.60;11.33;;;24.00;99.90;;;;;;5067869;28;20469;-86
2023/09/17 10:49:03;;;;;;;11.57;10.47;;;24.00;99.90;;;;;;5075722;28;20490;-86
2023/09/17 10:51:34;;;;;;;14.67;13.07;;;24.00;99.90;;;;;;5075141;28;20466;-84
2023/09/17 10:54:10;;;;;;;12.30;11.13;;;24.00;99.90;;;;;;5075416;28;20466;-85
2023/09/17 10:56:41;;;;;;;15.50;13.03;;;24.00;99.90;;;;;;5053911;28;20479;-85
2023/09/17 10:59:11;;;;;;;13.30;11.67;;;24.00;99.90;;;;;;5072236;28;20469;-86
2023/09/17 11:01:44;;;;;;;10.80;9.80;;;24.00;99.90;;;;;;5074046;28;20541;-86
2023/09/17 11:04:25;;;;;;;13.97;9.40;;;24.00;99.90;;;;;;5073880;28;20539;-84
2023/09/17 11:06:54;;;;;;;11.10;8.50;;;24.10;99.90;;;;;;5045563;28;21410;-84
2023/09/17 11:09:29;;;;;;;9.13;8.23;;;24.00;99.90;;;;;;5065460;28;20531;-84
2023/09/17 11:12:12;;;;;;;;;;;;;;;;;;;;;
2023/09/17 11:14:45;;;;;;;8.07;7.47;;;24.10;99.90;;;;;;5045699;28;20801;-85
2023/09/17 11:17:32;;;;;;;7.90;7.30;;;24.10;99.90;;;;;;5071448;28;20465;-86
2023/09/17 11:19:59;;;;;;;11.80;7.47;;;24.20;99.90;;;;;;5061763;28;20595;-87
2023/09/17 11:22:37;;;;;;;10.27;8.40;;;24.20;99.90;;;;;;5044318;28;20570;-86
2023/09/17 11:25:17;;;;;;;8.23;7.53;;;24.20;99.90;;;;;;5063763;28;20470;-86
2023/09/17 11:27:45;;;;;;;9.97;9.17;;;24.20;99.90;;;;;;5072968;28;20470;-85
2023/09/17 11:30:25;;;;;;;9.57;8.83;;;24.20;99.90;;;;;;5073133;28;20466;-85
2023/09/17 11:33:09;;;;;;;11.80;10.87;;;24.30;99.90;;;;;;5075885;28;21039;-86
2023/09/17 11:35:39;;;;;;;15.37;13.97;;;24.30;99.90;;;;;;5073649;28;20485;-86
2023/09/17 11:38:09;;;;;;;14.27;12.97;;;24.30;99.90;;;;;;5074637;28;20781;-84
2023/09/17 11:40:40;;;;;;;10.60;9.70;;;24.30;99.90;;;;;;5073850;28;20482;-86
2023/09/17 11:43:13;;;;;;;8.53;7.83;;;24.30;99.90;;;;;;5052601;28;20532;-84
2023/09/17 11:45:52;;;;;;;8.80;8.00;;;24.30;99.90;;;;;;5051232;28;20474;-87
2023/09/17 11:48:29;;;;;;;9.50;8.80;;;24.30;99.90;;;;;;5060989;28;20470;-87
2023/09/17 11:51:34;;;;;;;10.13;8.97;;;24.30;99.90;;;;;;5072970;28;20536;-84
2023/09/17 11:54:15;;;;;;;12.93;9.50;;;24.30;99.90;;;;;;5069090;28;20466;-84
2023/09/17 11:56:49;;;;;;;10.20;9.40;;;24.30;99.90;;;;;;5072278;28;20466;-85
2023/09/17 11:59:21;;;;;;;9.20;8.50;;;24.30;99.90;;;;;;5072985;28;20478;-85
2023/09/17 12:01:54;;;;;;;7.80;7.20;;;24.30;99.90;;;;;;5052617;28;20475;-83
2023/09/17 12:04:25;;;;;;;6.90;6.40;;;24.30;99.90;;;;;;5066902;28;20553;-84
2023/09/17 12:06:53;;;;;;;7.17;6.57;;;24.30;99.90;;;;;;5072951;28;20466;-83
2023/09/17 12:09:28;;;;;;;7.37;6.87;;;24.30;99.90;;;;;;5074603;28;20548;-84
2023/09/17 12:14:37;;;;;;;7.93;7.33;;;24.40;99.90;;;;;;5072943;28;20466;-85
2023/09/17 12:17:05;;;;;;;8.70;8.10;;;24.40;99.90;;;;;;5073448;28;20825;-85
2023/09/17 12:19:34;;;;;;;8.73;8.13;;;24.40;99.90;;;;;;5057098;28;20479;-85
2023/09/17 12:22:01;;;;;;;8.17;7.47;;;24.40;99.90;;;;;;5046538;28;20995;-86
2023/09/17 12:24:34;;;;;;;8.17;6.50;;;24.40;99.90;;;;;;5077316;28;20469;-87
2023/09/17 12:27:19;;;;;;;7.87;7.17;;;24.40;99.90;;;;;;5077813;28;20524;-86
2023/09/17 12:29:46;;;;;;;7.30;6.70;;;24.40;99.90;;;;;;5077117;28;20780;-86
2023/09/17 12:32:16;;;;;;;7.80;7.10;;;24.40;99.90;;;;;;5091049;28;20456;-87
2023/09/17 12:34:45;;;;;;;12.67;7.53;;;24.40;99.90;;;;;;5080425;28;20478;-85
2023/09/17 12:37:12;;;;;;;8.27;7.60;;;24.40;99.90;;;;;;5076999;28;20474;-84
2023/09/17 12:39:43;;;;;;;7.97;7.17;;;24.40;99.90;;;;;;5070907;28;20573;-86
2023/09/17 12:42:22;;;;;;;7.93;7.23;;;24.30;99.90;;;;;;5077370;28;20473;-86
2023/09/17 12:44:53;;;;;;;6.07;5.67;;;24.40;99.90;;;;;;5045099;28;20537;-87
2023/09/17 12:47:24;;;;;;;8.53;7.53;;;24.50;99.90;;;;;;5059902;28;20535;-85
2023/09/17 12:50:01;;;;;;;7.80;7.10;;;24.50;99.90;;;;;;5071249;28;20475;-85
2023/09/17 12:52:29;;;;;;;8.10;7.33;;;24.50;99.90;;;;;;5079998;28;20461;-86
2023/09/17 12:55:03;;;;;;;6.70;6.20;;;24.50;99.90;;;;;;5053754;28;20475;-85
2023/09/17 12:58:14;;;;;;;7.23;6.53;;;24.50;99.90;;;;;;5073813;28;20974;-85
2023/09/17 13:00:41;;;;;;;6.80;6.30;;;24.50;99.90;;;;;;5051013;28;21019;-85
2023/09/17 13:06:50;;;;;;;25.63;9.33;;;24.60;99.90;;;;;;5047649;28;20848;-85
2023/09/17 13:09:17;;;;;;;15.40;8.80;;;24.60;99.90;;;;;;5043789;28;20473;-85
2023/09/17 13:11:46;;;;;;;10.10;8.80;;;24.60;99.90;;;;;;5080108;28;20489;-87
2023/09/17 13:14:15;;;;;;;8.30;7.30;;;24.60;99.90;;;;;;5076809;28;20485;-86
2023/09/17 13:16:42;;;;;;;11.03;7.97;;;24.60;99.90;;;;;;5090936;28;20477;-86
2023/09/17 13:19:11;;;;;;;9.30;7.73;;;24.60;99.90;;;;;;5087094;28;20560;-86
2023/09/17 13:21:41;;;;;;;8.60;7.70;;;24.60;99.90;;;;;;5069720;28;20468;-86
2023/09/17 13:24:12;;;;;;;8.90;8.00;;;24.60;99.90;;;;;;5066522;28;20474;-86
2023/09/17 13:26:44;;;;;;;15.17;7.93;;;24.60;99.90;;;;;;5076267;28;20473;-86